createdAt,value
2023-01-25T00:00:46.690Z,71.26
2023-01-25T00:03:33.263Z,71.18
2023-01-25T00:06:09.046Z,71.36
2023-01-25T00:08:42.696Z,71.44
2023-01-25T00:11:17.499Z,71.44
2023-01-25T00:13:51.715Z,71.48
2023-01-25T00:16:26.284Z,71.25
2023-01-25T00:19:00.027Z,71.00
2023-01-25T00:21:34.578Z,70.88
2023-01-25T00:24:12.023Z,70.79
2023-01-25T00:26:46.203Z,70.76
2023-01-25T00:29:20.253Z,70.45
2023-01-25T00:32:32.246Z,70.21
2023-01-25T00:35:07.064Z,70.16
2023-01-25T00:37:44.590Z,69.96
2023-01-25T00:40:18.783Z,69.69
2023-01-25T00:42:52.754Z,69.42
2023-01-25T00:45:26.813Z,69.34
2023-01-25T00:48:03.733Z,69.30
2023-01-25T00:50:40.360Z,69.17
2023-01-25T00:53:14.109Z,68.90
2023-01-25T00:55:55.365Z,68.95
2023-01-25T00:58:29.292Z,68.96
2023-01-25T01:01:03.023Z,68.89
2023-01-25T01:03:37.152Z,68.52
2023-01-25T01:06:13.902Z,68.70
2023-01-25T01:08:47.509Z,68.81
2023-01-25T01:11:21.435Z,68.79
2023-01-25T01:13:58.196Z,68.93
2023-01-25T01:16:31.880Z,68.97
2023-01-25T01:19:06.454Z,69.06
2023-01-25T01:21:40.811Z,68.85
2023-01-25T01:24:15.172Z,68.71
2023-01-25T01:26:49.005Z,68.75
2023-01-25T01:29:22.693Z,68.60
2023-01-25T01:31:56.842Z,68.66
2023-01-25T01:34:32.589Z,68.44
2023-01-25T01:37:06.362Z,68.24
2023-01-25T01:39:41.492Z,68.10
2023-01-25T01:42:15.692Z,68.16
2023-01-25T01:44:51.598Z,68.23
2023-01-25T01:47:30.631Z,68.21
2023-01-25T01:50:26.711Z,68.23
2023-01-25T01:53:00.952Z,68.32
2023-01-25T01:55:35.450Z,68.22
2023-01-25T01:58:10.550Z,68.12
2023-01-25T02:00:45.114Z,68.11
2023-01-25T02:03:19.478Z,67.79
2023-01-25T02:05:58.781Z,67.29
2023-01-25T02:08:37.087Z,67.47
2023-01-25T02:11:11.995Z,67.77
2023-01-25T02:13:46.195Z,67.61
2023-01-25T02:16:26.132Z,67.47
2023-01-25T02:19:02.922Z,67.49
2023-01-25T02:21:45.871Z,67.09
2023-01-25T02:24:28.099Z,67.38
2023-01-25T02:27:01.883Z,67.22
2023-01-25T02:29:36.373Z,67.13
2023-01-25T02:32:10.557Z,67.41
2023-01-25T02:34:44.002Z,67.44
2023-01-25T02:37:18.621Z,67.47
2023-01-25T02:39:52.723Z,67.53
2023-01-25T02:42:26.812Z,67.46
2023-01-25T02:45:00.706Z,67.41
2023-01-25T02:47:34.143Z,67.36
2023-01-25T02:50:10.720Z,67.23
2023-01-25T02:52:44.380Z,67.09
2023-01-25T02:55:18.365Z,66.82
2023-01-25T02:57:52.385Z,66.70
2023-01-25T03:00:26.675Z,66.65
2023-01-25T03:03:00.480Z,66.82
2023-01-25T03:05:34.602Z,66.85
2023-01-25T03:08:08.772Z,66.89
2023-01-25T03:10:42.659Z,66.81
2023-01-25T03:13:16.609Z,66.85
2023-01-25T03:15:50.731Z,66.80
2023-01-25T03:18:24.473Z,66.73
2023-01-25T03:20:58.568Z,66.69
2023-01-25T03:23:32.315Z,66.71
2023-01-25T03:26:12.629Z,66.60
2023-01-25T03:28:54.358Z,66.71
2023-01-25T03:31:28.687Z,66.58
2023-01-25T03:34:03.513Z,66.56
2023-01-25T03:36:41.022Z,66.50
2023-01-25T03:39:15.072Z,66.58
2023-01-25T03:41:50.314Z,66.78
2023-01-25T03:44:24.218Z,66.71
2023-01-25T03:46:57.893Z,66.60
2023-01-25T03:49:40.064Z,66.11
2023-01-25T03:52:14.042Z,66.02
2023-01-25T03:54:48.424Z,66.28
2023-01-25T03:57:22.373Z,66.32
2023-01-25T04:00:03.536Z,66.29
2023-01-25T04:02:49.420Z,66.40
2023-01-25T04:05:24.889Z,66.33
2023-01-25T04:07:59.729Z,66.25
2023-01-25T04:10:42.631Z,66.53
2023-01-25T04:13:16.459Z,66.73
2023-01-25T04:15:50.304Z,66.74
2023-01-25T04:18:35.992Z,66.77
2023-01-25T04:21:10.845Z,66.73
2023-01-25T04:23:44.999Z,66.76
2023-01-25T04:26:19.247Z,66.59
2023-01-25T04:28:58.022Z,66.32
2023-01-25T04:31:32.465Z,66.33
2023-01-25T04:34:06.352Z,66.48
2023-01-25T04:36:40.108Z,66.46
2023-01-25T04:39:14.620Z,66.60
2023-01-25T04:41:48.889Z,66.74
2023-01-25T04:44:22.472Z,66.68
2023-01-25T04:46:56.092Z,66.83
2023-01-25T04:49:30.371Z,66.90
2023-01-25T04:52:04.850Z,67.03
2023-01-25T04:54:38.556Z,67.06
2023-01-25T04:57:13.596Z,67.11
2023-01-25T04:59:49.095Z,67.27
2023-01-25T05:02:22.971Z,67.38
2023-01-25T05:04:56.925Z,67.35
2023-01-25T05:07:30.621Z,67.42
2023-01-25T05:10:04.820Z,67.54
2023-01-25T05:12:39.571Z,67.27
2023-01-25T05:15:14.768Z,67.23
2023-01-25T05:17:48.672Z,67.27
2023-01-25T05:20:22.653Z,67.07
2023-01-25T05:22:56.587Z,67.15
2023-01-25T05:25:48.434Z,67.10
2023-01-25T05:28:22.697Z,67.03
2023-01-25T05:31:16.919Z,66.88
2023-01-25T05:33:51.132Z,67.03
2023-01-25T05:36:24.995Z,67.03
2023-01-25T05:38:59.419Z,67.05
2023-01-25T05:41:34.340Z,67.24
2023-01-25T05:44:08.814Z,67.14
2023-01-25T05:46:44.897Z,67.04
2023-01-25T05:49:19.867Z,66.98
2023-01-25T05:51:53.796Z,67.02
2023-01-25T05:54:28.304Z,66.90
2023-01-25T05:57:07.164Z,67.00
2023-01-25T05:59:41.391Z,67.01
2023-01-25T06:02:16.556Z,67.07
2023-01-25T06:04:51.439Z,67.03
2023-01-25T06:07:25.637Z,67.03
2023-01-25T06:09:59.643Z,67.00
2023-01-25T06:12:33.621Z,67.06
2023-01-25T06:15:08.684Z,67.08
2023-01-25T06:17:42.913Z,67.07
2023-01-25T06:20:43.091Z,67.03
2023-01-25T06:23:17.065Z,67.15
2023-01-25T06:25:50.788Z,67.23
2023-01-25T06:28:24.619Z,67.00
2023-01-25T06:30:58.445Z,67.04
2023-01-25T06:33:32.260Z,67.13
2023-01-25T06:36:09.502Z,67.25
2023-01-25T06:38:44.197Z,67.20
2023-01-25T06:41:17.966Z,67.16
2023-01-25T06:43:54.274Z,67.20
2023-01-25T06:46:28.388Z,67.07
2023-01-25T06:49:02.358Z,66.97
2023-01-25T06:51:36.587Z,67.01
2023-01-25T06:54:10.448Z,66.93
2023-01-25T06:56:44.428Z,66.91
2023-01-25T06:59:18.656Z,66.96
2023-01-25T07:01:52.311Z,66.97
2023-01-25T07:04:27.023Z,66.96
2023-01-25T07:07:00.451Z,67.00
2023-01-25T07:09:34.280Z,67.11
2023-01-25T07:12:09.364Z,67.03
2023-01-25T07:14:42.982Z,67.16
2023-01-25T07:17:17.154Z,67.20
2023-01-25T07:19:50.859Z,67.03
2023-01-25T07:22:24.851Z,66.64
2023-01-25T07:24:59.343Z,66.49
2023-01-25T07:27:37.980Z,66.81
2023-01-25T07:30:14.849Z,66.84
2023-01-25T07:33:01.021Z,66.96
2023-01-25T07:35:34.990Z,67.11
2023-01-25T07:38:08.833Z,67.06
2023-01-25T07:40:45.731Z,67.00
2023-01-25T07:43:19.745Z,66.84
2023-01-25T07:45:53.703Z,67.00
2023-01-25T07:48:30.169Z,66.93
2023-01-25T07:51:16.856Z,66.97
2023-01-25T07:53:51.892Z,67.04
2023-01-25T07:56:27.622Z,67.06
2023-01-25T07:59:03.241Z,67.06
2023-01-25T08:01:38.680Z,66.86
2023-01-25T08:04:12.979Z,66.82
2023-01-25T08:06:46.967Z,66.71
2023-01-25T08:09:21.690Z,66.55
2023-01-25T08:11:55.337Z,66.75
2023-01-25T08:14:30.534Z,66.88
2023-01-25T08:17:04.481Z,66.71
2023-01-25T08:19:38.592Z,66.79
2023-01-25T08:22:13.534Z,66.93
2023-01-25T08:24:47.810Z,66.88
2023-01-25T08:27:21.734Z,66.76
2023-01-25T08:29:55.371Z,66.67
2023-01-25T08:32:29.269Z,66.66
2023-01-25T08:35:03.035Z,66.68
2023-01-25T08:37:37.029Z,66.53
2023-01-25T08:40:14.325Z,66.46
2023-01-25T08:42:48.289Z,66.46
2023-01-25T08:45:22.429Z,66.56
2023-01-25T08:47:55.917Z,66.43
2023-01-25T08:50:29.923Z,66.57
2023-01-25T08:53:03.524Z,66.64
2023-01-25T08:55:39.339Z,66.48
2023-01-25T08:58:14.410Z,66.43
2023-01-25T09:00:48.352Z,66.43
2023-01-25T09:03:22.497Z,66.38
2023-01-25T09:05:57.503Z,66.35
2023-01-25T09:08:31.028Z,66.11
2023-01-25T09:11:07.713Z,66.08
2023-01-25T09:13:44.016Z,66.11
2023-01-25T09:16:21.018Z,66.09
2023-01-25T09:18:55.068Z,65.79
2023-01-25T09:21:28.904Z,65.65
2023-01-25T09:24:07.327Z,65.81
2023-01-25T09:26:55.684Z,65.93
2023-01-25T09:29:33.290Z,66.17
2023-01-25T09:32:08.081Z,66.19
2023-01-25T09:35:00.997Z,66.12
2023-01-25T09:37:34.884Z,66.15
2023-01-25T09:40:15.963Z,66.11
2023-01-25T09:43:02.352Z,66.12
2023-01-25T09:45:37.262Z,65.99
2023-01-25T09:48:28.719Z,65.98
2023-01-25T09:51:17.548Z,65.98
2023-01-25T09:53:57.224Z,66.10
2023-01-25T09:56:36.038Z,66.12
2023-01-25T09:59:19.159Z,65.87
2023-01-25T10:01:57.941Z,65.87
2023-01-25T10:04:38.055Z,65.92
2023-01-25T10:07:23.060Z,65.92
2023-01-25T10:10:07.800Z,65.74
2023-01-25T10:12:42.536Z,65.76
2023-01-25T10:15:22.549Z,65.79
2023-01-25T10:18:04.844Z,65.72
2023-01-25T10:20:50.686Z,65.81
2023-01-25T10:23:55.201Z,65.82
2023-01-25T10:26:31.487Z,65.83
2023-01-25T10:29:13.240Z,65.90
2023-01-25T10:31:52.967Z,65.83
2023-01-25T10:34:41.387Z,65.80
2023-01-25T10:37:24.334Z,65.76
2023-01-25T10:40:03.938Z,65.50
2023-01-25T10:42:46.325Z,65.19
2023-01-25T10:45:21.202Z,65.20
2023-01-25T10:48:03.498Z,65.52
2023-01-25T10:50:55.304Z,65.60
2023-01-25T10:53:32.497Z,65.68
2023-01-25T10:56:19.673Z,65.69
2023-01-25T10:58:55.906Z,65.63
2023-01-25T11:01:32.170Z,65.60
2023-01-25T11:04:23.909Z,65.69
2023-01-25T11:06:57.960Z,65.69
2023-01-25T11:09:44.321Z,65.56
2023-01-25T11:12:23.393Z,65.38
2023-01-25T11:14:57.281Z,65.50
2023-01-25T11:17:32.703Z,65.56
2023-01-25T11:20:23.206Z,65.63
2023-01-25T11:22:59.238Z,65.83
2023-01-25T11:25:35.445Z,65.86
2023-01-25T11:28:26.364Z,65.79
2023-01-25T11:31:00.931Z,65.76
2023-01-25T11:33:34.887Z,65.78
2023-01-25T11:36:16.879Z,65.83
2023-01-25T11:39:05.561Z,65.88
2023-01-25T11:41:49.969Z,65.86
2023-01-25T11:44:54.589Z,65.60
2023-01-25T11:47:42.604Z,65.50
2023-01-25T11:50:25.753Z,65.73
2023-01-25T11:53:17.549Z,65.88
2023-01-25T11:55:58.014Z,65.90
2023-01-25T11:58:51.339Z,65.83
2023-01-25T12:01:35.795Z,65.79
2023-01-25T12:04:37.735Z,65.76
2023-01-25T12:07:21.914Z,65.71
2023-01-25T12:10:17.124Z,65.57
2023-01-25T12:12:59.047Z,65.64
2023-01-25T12:15:46.889Z,65.58
2023-01-25T12:18:44.324Z,65.40
2023-01-25T12:21:32.420Z,65.43
2023-01-25T12:24:26.543Z,65.67
2023-01-25T12:27:10.064Z,65.73
2023-01-25T12:29:49.841Z,65.72
2023-01-25T12:32:28.882Z,65.86
2023-01-25T12:35:24.476Z,65.81
2023-01-25T12:38:03.193Z,65.76
2023-01-25T12:40:53.516Z,65.48
2023-01-25T12:43:32.323Z,65.55
2023-01-25T12:46:12.867Z,65.81
2023-01-25T12:48:52.852Z,65.87
2023-01-25T12:51:32.113Z,66.00
2023-01-25T12:54:15.956Z,66.06
2023-01-25T12:56:58.697Z,65.94
2023-01-25T12:59:42.024Z,65.85
2023-01-25T13:02:35.958Z,65.81
2023-01-25T13:05:24.496Z,66.02
2023-01-25T13:08:11.388Z,66.19
2023-01-25T13:10:51.022Z,66.31
2023-01-25T13:13:30.128Z,66.16
2023-01-25T13:16:35.709Z,66.12
2023-01-25T13:19:23.377Z,66.07
2023-01-25T13:21:58.816Z,66.10
2023-01-25T13:24:34.341Z,66.21
2023-01-25T13:27:28.518Z,66.01
2023-01-25T13:30:04.959Z,66.01
2023-01-25T13:33:08.589Z,66.16
2023-01-25T13:35:44.783Z,66.05
2023-01-25T13:38:34.142Z,65.92
2023-01-25T13:41:17.387Z,66.05
2023-01-25T13:44:23.011Z,65.79
2023-01-25T13:46:57.283Z,65.77
2023-01-25T13:49:38.763Z,65.84
2023-01-25T13:52:18.819Z,65.66
2023-01-25T13:54:56.102Z,65.43
2023-01-25T13:57:31.733Z,65.81
2023-01-25T14:00:13.280Z,66.03
2023-01-25T14:02:54.713Z,66.01
2023-01-25T14:05:29.571Z,66.06
2023-01-25T14:08:03.732Z,66.22
2023-01-25T14:10:37.742Z,66.15
2023-01-25T14:13:18.874Z,66.02
2023-01-25T14:16:00.848Z,66.20
2023-01-25T14:18:38.909Z,66.00
2023-01-25T14:21:20.570Z,66.04
2023-01-25T14:23:54.715Z,66.07
2023-01-25T14:26:29.950Z,66.25
2023-01-25T14:29:03.739Z,66.35
2023-01-25T14:31:39.062Z,66.42
2023-01-25T14:34:21.485Z,66.48
2023-01-25T14:37:08.945Z,66.40
2023-01-25T14:39:43.042Z,66.41
2023-01-25T14:42:17.459Z,66.38
2023-01-25T14:44:51.825Z,66.47
2023-01-25T14:47:33.465Z,66.47
2023-01-25T14:50:37.529Z,66.39
2023-01-25T14:53:22.655Z,66.45
2023-01-25T14:55:56.835Z,66.45
2023-01-25T14:58:32.371Z,66.63
2023-01-25T15:01:06.989Z,66.57
2023-01-25T15:03:46.409Z,66.53
2023-01-25T15:06:20.827Z,66.58
2023-01-25T15:08:54.846Z,66.65
2023-01-25T15:11:45.952Z,66.70
2023-01-25T15:14:23.663Z,66.85
2023-01-25T15:16:57.589Z,66.75
2023-01-25T15:19:34.825Z,66.83
2023-01-25T15:22:11.951Z,66.75
2023-01-25T15:24:50.350Z,66.69
2023-01-25T15:27:36.627Z,66.81
2023-01-25T15:30:17.042Z,66.96
2023-01-25T15:32:52.807Z,67.00
2023-01-25T15:35:27.113Z,67.13
2023-01-25T15:38:01.194Z,67.09
2023-01-25T15:40:35.470Z,67.06
2023-01-25T15:43:11.990Z,66.89
2023-01-25T15:45:49.449Z,66.94
2023-01-25T15:48:30.930Z,67.04
2023-01-25T15:51:06.097Z,67.10
2023-01-25T15:53:40.623Z,66.93
2023-01-25T15:56:20.765Z,67.01
2023-01-25T15:58:56.712Z,67.07
2023-01-25T16:01:32.186Z,67.04
2023-01-25T16:04:07.125Z,66.99
2023-01-25T16:06:45.871Z,67.04
2023-01-25T16:09:22.580Z,67.20
2023-01-25T16:11:59.258Z,67.25
2023-01-25T16:14:34.442Z,67.24
2023-01-25T16:17:17.311Z,67.04
2023-01-25T16:19:51.684Z,67.04
2023-01-25T16:22:26.231Z,67.22
2023-01-25T16:25:01.577Z,67.32
2023-01-25T16:27:36.538Z,67.28
2023-01-25T16:30:22.882Z,67.37
2023-01-25T16:32:58.757Z,67.29
2023-01-25T16:35:34.018Z,67.18
2023-01-25T16:38:08.581Z,67.00
2023-01-25T16:40:48.838Z,67.03
2023-01-25T16:43:28.987Z,67.04
2023-01-25T16:46:08.399Z,67.33
2023-01-25T16:48:46.606Z,67.34
2023-01-25T16:51:30.542Z,67.37
2023-01-25T16:54:06.264Z,67.55
2023-01-25T16:56:46.226Z,67.63
2023-01-25T16:59:24.263Z,67.59
2023-01-25T17:02:02.115Z,67.54
2023-01-25T17:04:37.352Z,67.56
2023-01-25T17:07:18.299Z,67.71
2023-01-25T17:09:53.696Z,67.84
2023-01-25T17:12:29.912Z,67.76
2023-01-25T17:15:06.111Z,67.83
2023-01-25T17:17:41.467Z,67.94
2023-01-25T17:20:23.086Z,67.93
2023-01-25T17:23:00.275Z,67.74
2023-01-25T17:25:40.521Z,67.71
2023-01-25T17:28:19.259Z,67.72
2023-01-25T17:30:56.342Z,67.83
2023-01-25T17:33:35.676Z,67.80
2023-01-25T17:36:15.171Z,67.79
2023-01-25T17:38:55.617Z,67.80
2023-01-25T17:41:35.607Z,67.88
2023-01-25T17:44:13.247Z,67.91
2023-01-25T17:46:57.478Z,67.90
2023-01-25T17:49:40.185Z,67.61
2023-01-25T17:52:18.753Z,67.76
2023-01-25T17:55:00.822Z,67.62
2023-01-25T17:57:46.091Z,67.81
2023-01-25T18:00:28.975Z,67.91
2023-01-25T18:03:07.519Z,68.05
2023-01-25T18:05:47.174Z,68.09
2023-01-25T18:08:30.046Z,67.91
2023-01-25T18:11:10.038Z,67.82
2023-01-25T18:13:49.820Z,67.94
2023-01-25T18:16:31.539Z,67.98
2023-01-25T18:19:13.152Z,68.08
2023-01-25T18:21:53.867Z,68.11
2023-01-25T18:24:37.933Z,68.10
2023-01-25T18:27:29.528Z,68.14
2023-01-25T18:30:31.384Z,68.21
2023-01-25T18:33:09.905Z,68.12
2023-01-25T18:35:56.837Z,67.98
2023-01-25T18:38:37.675Z,68.08
2023-01-25T18:41:19.876Z,68.15
2023-01-25T18:44:04.931Z,68.20
2023-01-25T18:46:46.805Z,68.30
2023-01-25T18:49:30.020Z,68.23
2023-01-25T18:52:19.258Z,68.31
2023-01-25T18:54:57.234Z,68.37
2023-01-25T18:57:40.973Z,68.24
2023-01-25T19:00:26.253Z,68.28
2023-01-25T19:03:08.415Z,68.44
2023-01-25T19:05:54.722Z,68.44
2023-01-25T19:08:37.052Z,68.52
2023-01-25T19:11:18.799Z,68.11
2023-01-25T19:13:59.599Z,68.10
2023-01-25T19:16:41.580Z,68.18
2023-01-25T19:19:19.823Z,68.28
2023-01-25T19:22:00.876Z,68.32
2023-01-25T19:24:40.561Z,68.23
2023-01-25T19:27:19.132Z,67.94
2023-01-25T19:29:56.582Z,68.05
2023-01-25T19:32:34.383Z,68.07
2023-01-25T19:35:14.164Z,68.07
2023-01-25T19:38:03.692Z,68.06
2023-01-25T19:40:56.691Z,67.74
2023-01-25T19:43:36.181Z,67.77
2023-01-25T19:46:19.178Z,68.03
2023-01-25T19:48:59.460Z,68.17
2023-01-25T19:51:39.335Z,68.18
2023-01-25T19:54:20.833Z,68.17
2023-01-25T19:56:59.676Z,68.14
2023-01-25T19:59:41.090Z,68.31
2023-01-25T20:02:22.473Z,68.18
2023-01-25T20:05:01.371Z,68.12
2023-01-25T20:07:39.733Z,68.14
2023-01-25T20:10:31.024Z,68.17
2023-01-25T20:13:11.518Z,68.32
2023-01-25T20:16:01.144Z,68.61
2023-01-25T20:18:42.615Z,68.44
2023-01-25T20:21:22.876Z,68.52
2023-01-25T20:24:07.466Z,68.64
2023-01-25T20:26:47.887Z,68.79
2023-01-25T20:29:32.235Z,68.70
2023-01-25T20:32:26.688Z,68.84
2023-01-25T20:35:10.725Z,68.87
2023-01-25T20:37:52.941Z,68.81
2023-01-25T20:40:39.208Z,68.82
2023-01-25T20:43:18.973Z,68.81
2023-01-25T20:46:00.307Z,68.75
2023-01-25T20:48:37.666Z,68.72
2023-01-25T20:51:19.036Z,68.72
2023-01-25T20:53:58.311Z,68.95
2023-01-25T20:56:36.081Z,69.04
2023-01-25T20:59:13.957Z,68.79
2023-01-25T21:01:54.784Z,68.54
2023-01-25T21:04:34.407Z,68.69
2023-01-25T21:07:12.958Z,68.90
2023-01-25T21:09:49.445Z,69.34
2023-01-25T21:12:26.963Z,69.52
2023-01-25T21:15:03.933Z,69.67
2023-01-25T21:17:41.056Z,69.51
2023-01-25T21:20:23.429Z,69.35
2023-01-25T21:22:59.276Z,69.15
2023-01-25T21:25:39.506Z,69.15
2023-01-25T21:28:13.877Z,69.19
2023-01-25T21:30:54.162Z,69.11
2023-01-25T21:33:29.189Z,69.13
2023-01-25T21:36:14.949Z,69.13
2023-01-25T21:38:57.667Z,69.25
2023-01-25T21:41:35.177Z,69.18
2023-01-25T21:44:29.668Z,69.30
2023-01-25T21:47:29.900Z,69.24
2023-01-25T21:50:17.230Z,69.11
2023-01-25T21:52:54.527Z,68.95
2023-01-25T21:55:29.443Z,69.05
2023-01-25T21:58:03.888Z,69.09
2023-01-25T22:00:39.474Z,68.82
2023-01-25T22:03:13.358Z,68.83
2023-01-25T22:05:47.102Z,69.00
2023-01-25T22:08:20.922Z,68.97
2023-01-25T22:10:55.036Z,68.98
2023-01-25T22:13:30.068Z,68.88
2023-01-25T22:16:04.667Z,68.86
2023-01-25T22:18:41.611Z,68.90
2023-01-25T22:21:20.007Z,69.06
2023-01-25T22:23:55.045Z,68.98
2023-01-25T22:26:32.483Z,68.91
2023-01-25T22:29:06.559Z,69.04
2023-01-25T22:31:41.440Z,69.14
2023-01-25T22:34:15.443Z,69.33
2023-01-25T22:36:50.249Z,69.21
2023-01-25T22:39:24.099Z,69.15
2023-01-25T22:41:58.281Z,69.30
2023-01-25T22:44:32.231Z,69.60
2023-01-25T22:47:06.313Z,69.64
2023-01-25T22:49:40.346Z,69.67
2023-01-25T22:52:14.454Z,69.68
2023-01-25T22:54:50.509Z,69.62
2023-01-25T22:57:24.387Z,69.61
2023-01-25T22:59:58.529Z,69.68
2023-01-25T23:02:32.899Z,69.77
2023-01-25T23:05:07.677Z,69.81
2023-01-25T23:07:41.187Z,69.79
2023-01-25T23:10:16.834Z,69.90
2023-01-25T23:12:50.505Z,69.65
2023-01-25T23:15:24.651Z,69.65
2023-01-25T23:18:15.714Z,69.92
2023-01-25T23:20:49.447Z,69.80
2023-01-25T23:23:24.608Z,69.96
2023-01-25T23:25:58.576Z,70.11
2023-01-25T23:28:32.770Z,69.92
2023-01-25T23:31:18.291Z,70.05
2023-01-25T23:33:55.040Z,70.00
2023-01-25T23:36:30.662Z,70.09
2023-01-25T23:39:04.221Z,69.92
2023-01-25T23:41:38.651Z,69.89
2023-01-25T23:44:12.402Z,69.92
2023-01-25T23:46:46.788Z,69.99
2023-01-25T23:49:20.714Z,70.07
2023-01-25T23:51:54.950Z,70.15
2023-01-25T23:54:32.796Z,70.20
2023-01-25T23:57:06.947Z,70.20
2023-01-25T23:59:41.078Z,70.06
